Portada
METAR-TAF:

METAR-TAF

Aeropuertos :

Ginebra, Suiza

Aeropuerto Internacional de Ginebra

latitud: 46-15N, longitud: 006-08E, altitud: 420 m

Observación

El informe se hizo hace 23 minutos, a las 23:50 UTC
Viento 1 kt con dirección variable
Temperatura 10°C
Humedad 100%
Presión 1020 hPa
Visibilidad 10 km o más

METAR: LSGG 252350Z AUTO VRB01KT 9999 NSC 10/10 Q1020 NOSIG

Hora: 02:13 (00:13 UTC)

Pronóstico

El informe se hizo hace 48 minutos, a las 23:25 UTC
Pronóstico válido del 26 a las 00 UTC al 27 a las 06 UTC
Viento 3 kt con dirección variable
Visibilidad 10 km o más
Escasas nubes a una altura de 7000 ft
Cielo nuboso a una altura de 12000 ft

TAF: LSGG 252325Z 2600/2706 VRB03KT 9999 FEW070 BKN120 TX19/2614Z TN10/2605Z TN10/2705Z

Observaciones y pronósticos meteorológicos de más de 4000 aeropuertos (mensajes METAR y TAF).

Los puntos amarillos y rojos representan las estaciones disponibles.

Ponga el ratón en el punto deseado para ver el nombre de la estación.

Haga clic para ver las observaciones y los pronósticos meteorológicos.

Para cambiar el mapa : haga clic en los botones verdes con una cruz de color negro para hacer un zoom, en el botón verde con un guión para alejar o en las flechas verdes para mapas adyacentes.


METAR-TAF: